createdAt,value
2019-02-15T00:00:00.551Z,101329.59
2019-02-15T00:02:32.981Z,101329.17
2019-02-15T00:05:07.386Z,101330.23
2019-02-15T00:07:38.994Z,101323.47
2019-02-15T00:10:10.764Z,101325.08
2019-02-15T00:12:42.222Z,101330.51
2019-02-15T00:15:13.656Z,101332.75
2019-02-15T00:18:08.094Z,101330.03
2019-02-15T00:20:48.644Z,101328.30
2019-02-15T00:23:20.642Z,101329.01
2019-02-15T00:25:52.273Z,101328.09
2019-02-15T00:28:25.674Z,101325.77
2019-02-15T00:30:57.271Z,101322.58
2019-02-15T00:33:28.680Z,101324.86
2019-02-15T00:36:00.891Z,101319.13
2019-02-15T00:38:32.317Z,101320.55
2019-02-15T00:41:04.256Z,101322.58
2019-02-15T00:43:35.656Z,101329.08
2019-02-15T00:46:23.228Z,101330.13
2019-02-15T00:48:54.753Z,101323.91
2019-02-15T00:51:50.765Z,101330.54
2019-02-15T00:54:30.917Z,101327.26
2019-02-15T00:57:20.839Z,101326.94
2019-02-15T01:00:17.285Z,101335.45
2019-02-15T01:03:02.858Z,101329.34
2019-02-15T01:05:55.113Z,101325.92
2019-02-15T01:08:45.061Z,101329.36
2019-02-15T01:11:35.144Z,101329.60
2019-02-15T01:14:06.707Z,101329.26
2019-02-15T01:16:38.440Z,101330.66
2019-02-15T01:19:10.310Z,101325.45
2019-02-15T01:21:41.738Z,101334.19
2019-02-15T01:24:13.739Z,101323.80
2019-02-15T01:26:49.910Z,101322.71
2019-02-15T01:29:51.795Z,101324.17
2019-02-15T01:32:53.022Z,101323.11
2019-02-15T01:35:40.073Z,101325.34
2019-02-15T01:38:39.157Z,101321.02
2019-02-15T01:41:27.995Z,101322.06
2019-02-15T01:44:14.509Z,101319.00
2019-02-15T01:46:59.576Z,101309.58
2019-02-15T01:49:32.466Z,101316.30
2019-02-15T01:52:03.996Z,101325.95
2019-02-15T01:54:35.595Z,101325.37
2019-02-15T01:57:07.050Z,101323.74
2019-02-15T01:59:39.081Z,101317.73
2019-02-15T02:02:11.764Z,101323.52
2019-02-15T02:04:43.149Z,101280.42
2019-02-15T02:07:14.712Z,101316.89
2019-02-15T02:09:46.353Z,101320.28
2019-02-15T02:12:17.975Z,101325.94
2019-02-15T02:14:51.025Z,101319.44
2019-02-15T02:17:24.605Z,101315.06
2019-02-15T02:19:56.046Z,101310.81
2019-02-15T02:22:27.443Z,101310.22
2019-02-15T02:24:59.894Z,101315.77
2019-02-15T02:27:34.407Z,101313.44
2019-02-15T02:30:08.675Z,101312.38
2019-02-15T02:32:40.497Z,101307.66
2019-02-15T02:35:13.283Z,101301.08
2019-02-15T02:37:45.096Z,101301.80
2019-02-15T02:40:17.377Z,101294.84
2019-02-15T02:42:48.788Z,101226.63
2019-02-15T02:45:20.641Z,101299.83
2019-02-15T02:47:52.211Z,101298.66
2019-02-15T02:50:23.847Z,101300.33
2019-02-15T02:52:55.323Z,101303.76
2019-02-15T02:55:26.741Z,101308.33
2019-02-15T02:57:58.116Z,101296.07
2019-02-15T03:00:33.486Z,101293.37
2019-02-15T03:03:03.177Z,101294.41
2019-02-15T03:05:43.644Z,101299.59
2019-02-15T03:08:15.254Z,101294.20
2019-02-15T03:10:47.047Z,101291.83
2019-02-15T03:13:19.144Z,101304.07
2019-02-15T03:15:50.719Z,101299.86
2019-02-15T03:18:22.057Z,101304.80
2019-02-15T03:20:53.875Z,101313.62
2019-02-15T03:23:25.265Z,101313.99
2019-02-15T03:25:56.644Z,101320.47
2019-02-15T03:28:28.221Z,101314.45
2019-02-15T03:30:59.576Z,101311.53
2019-02-15T03:33:31.300Z,101299.62
2019-02-15T03:36:04.923Z,101301.50
2019-02-15T03:38:41.010Z,101300.19
2019-02-15T03:41:31.076Z,101307.75
2019-02-15T03:44:04.128Z,101319.63
2019-02-15T03:46:36.920Z,101314.23
2019-02-15T03:49:08.169Z,101310.71
2019-02-15T03:51:39.801Z,101313.52
2019-02-15T03:54:11.225Z,101228.86
2019-02-15T03:56:42.866Z,101309.98
2019-02-15T03:59:14.761Z,101301.64
2019-02-15T04:01:46.551Z,101298.69
2019-02-15T04:04:18.065Z,101292.91
2019-02-15T04:06:49.467Z,101120.16
2019-02-15T04:09:21.105Z,101281.14
2019-02-15T04:11:52.453Z,101275.13
2019-02-15T04:14:32.462Z,101274.06
2019-02-15T04:16:57.502Z,101269.14
2019-02-15T04:19:28.912Z,101271.01
2019-02-15T04:22:00.705Z,101210.06
2019-02-15T04:24:32.067Z,101272.91
2019-02-15T04:27:03.359Z,101271.02
2019-02-15T04:29:34.702Z,101262.67
2019-02-15T04:32:06.610Z,101264.07
2019-02-15T04:34:37.956Z,101263.60
2019-02-15T04:37:10.232Z,101188.49
2019-02-15T04:39:41.543Z,101267.84
2019-02-15T04:42:13.038Z,101271.00
2019-02-15T04:44:44.482Z,101269.24
2019-02-15T04:47:16.214Z,101196.40
2019-02-15T04:49:47.848Z,101269.14
2019-02-15T04:52:19.268Z,101272.66
2019-02-15T04:54:50.792Z,101276.30
2019-02-15T04:57:22.622Z,101274.07
2019-02-15T04:59:54.076Z,101274.68
2019-02-15T05:02:25.318Z,101269.25
2019-02-15T05:04:58.312Z,101271.27
2019-02-15T05:07:29.824Z,101277.13
2019-02-15T05:10:01.378Z,101275.01
2019-02-15T05:12:32.588Z,101272.55
2019-02-15T05:15:04.242Z,101278.09
2019-02-15T05:17:35.827Z,101277.02
2019-02-15T05:20:07.491Z,101187.44
2019-02-15T05:22:39.117Z,101277.37
2019-02-15T05:25:10.645Z,101282.78
2019-02-15T05:27:42.061Z,101280.22
2019-02-15T05:30:13.574Z,101279.97
2019-02-15T05:32:45.104Z,101282.78
2019-02-15T05:35:16.512Z,101279.14
2019-02-15T05:37:47.869Z,101284.68
2019-02-15T05:40:19.177Z,101195.78
2019-02-15T05:42:50.510Z,101274.53
2019-02-15T05:45:22.421Z,101272.88
2019-02-15T05:47:53.724Z,101281.62
2019-02-15T05:50:25.027Z,101279.61
2019-02-15T05:52:56.841Z,101279.50
2019-02-15T05:55:28.181Z,101285.25
2019-02-15T05:57:59.495Z,101281.35
2019-02-15T06:00:36.937Z,101282.40
2019-02-15T06:03:04.521Z,101288.19
2019-02-15T06:05:36.278Z,101278.88
2019-02-15T06:08:07.702Z,101287.00
2019-02-15T06:10:39.005Z,101285.92
2019-02-15T06:13:10.702Z,101252.60
2019-02-15T06:15:42.048Z,101281.34
2019-02-15T06:18:13.354Z,101287.58
2019-02-15T06:20:44.730Z,101287.36
2019-02-15T06:23:16.141Z,101285.34
2019-02-15T06:25:48.095Z,101286.75
2019-02-15T06:28:19.592Z,101290.63
2019-02-15T06:30:51.335Z,101287.25
2019-02-15T06:33:23.113Z,101295.72
2019-02-15T06:35:54.441Z,101295.97
2019-02-15T06:38:34.566Z,101294.31
2019-02-15T06:40:59.036Z,101301.98
2019-02-15T06:43:30.549Z,101301.73
2019-02-15T06:46:02.137Z,101299.75
2019-02-15T06:48:33.760Z,101298.81
2019-02-15T06:51:05.130Z,101297.98
2019-02-15T06:53:36.602Z,101303.50
2019-02-15T06:56:08.263Z,101297.52
2019-02-15T06:58:45.819Z,101303.75
2019-02-15T07:01:27.108Z,101301.63
2019-02-15T07:04:17.185Z,101308.82
2019-02-15T07:06:49.130Z,101307.16
2019-02-15T07:09:20.505Z,101309.39
2019-02-15T07:11:51.958Z,101311.05
2019-02-15T07:14:23.239Z,101313.27
2019-02-15T07:16:57.279Z,101319.39
2019-02-15T07:19:28.854Z,101317.88
2019-02-15T07:22:00.207Z,101319.86
2019-02-15T07:24:31.908Z,101323.28
2019-02-15T07:27:03.421Z,101316.13
2019-02-15T07:29:34.744Z,101318.25
2019-02-15T07:32:06.293Z,101324.61
2019-02-15T07:34:38.233Z,101314.46
2019-02-15T07:37:09.689Z,101319.89
2019-02-15T07:39:41.599Z,101226.88
2019-02-15T07:42:13.160Z,101315.16
2019-02-15T07:44:44.752Z,101316.69
2019-02-15T07:47:16.191Z,101219.23
2019-02-15T07:49:47.854Z,101309.06
2019-02-15T07:52:19.707Z,101312.34
2019-02-15T07:54:51.353Z,101303.14
2019-02-15T07:57:23.919Z,101309.14
2019-02-15T07:59:56.628Z,101299.13
2019-02-15T08:02:28.060Z,101295.19
2019-02-15T08:04:59.517Z,101296.72
2019-02-15T08:07:31.269Z,101294.02
2019-02-15T08:10:02.937Z,101295.77
2019-02-15T08:12:34.568Z,101300.66
2019-02-15T08:15:06.579Z,101301.66
2019-02-15T08:17:38.138Z,101301.52
2019-02-15T08:20:11.153Z,101304.32
2019-02-15T08:22:42.776Z,101303.32
2019-02-15T08:25:14.240Z,101303.88
2019-02-15T08:27:45.740Z,101309.59
2019-02-15T08:30:17.278Z,101184.21
2019-02-15T08:32:48.977Z,101302.67
2019-02-15T08:35:20.467Z,101302.99
2019-02-15T08:37:52.018Z,101311.34
2019-02-15T08:40:23.874Z,101304.33
2019-02-15T08:42:56.019Z,101313.90
2019-02-15T08:45:27.817Z,101305.43
2019-02-15T08:47:59.224Z,101314.13
2019-02-15T08:50:30.847Z,101314.36
2019-02-15T08:53:03.501Z,101313.11
2019-02-15T08:55:36.936Z,101314.34
2019-02-15T08:58:08.824Z,101318.56
2019-02-15T09:00:41.298Z,101316.03
2019-02-15T09:03:13.658Z,101320.05
2019-02-15T09:05:45.166Z,101309.59
2019-02-15T09:08:16.464Z,101311.00
2019-02-15T09:10:48.396Z,101308.03
2019-02-15T09:13:20.299Z,101308.47
2019-02-15T09:15:51.944Z,101311.55
2019-02-15T09:18:23.832Z,101317.39
2019-02-15T09:20:55.404Z,101305.06
2019-02-15T09:23:28.514Z,101299.86
2019-02-15T09:26:00.105Z,101300.24
2019-02-15T09:28:36.761Z,101295.74
2019-02-15T09:31:08.616Z,101287.53
2019-02-15T09:33:40.130Z,101286.07
2019-02-15T09:36:12.659Z,101279.60
2019-02-15T09:38:44.869Z,101278.61
2019-02-15T09:41:17.718Z,101213.36
2019-02-15T09:43:49.298Z,101268.10
2019-02-15T09:46:21.789Z,101268.10
2019-02-15T09:48:53.197Z,101276.16
2019-02-15T09:51:24.811Z,101276.16
2019-02-15T09:53:56.290Z,101276.59
2019-02-15T09:56:28.803Z,101266.48
2019-02-15T09:59:00.990Z,101270.51
2019-02-15T10:01:32.940Z,101270.51
2019-02-15T10:04:04.506Z,101269.42
2019-02-15T10:06:36.111Z,101211.38
2019-02-15T10:09:11.682Z,101268.73
2019-02-15T10:11:43.669Z,101268.30
2019-02-15T10:14:15.767Z,101267.39
2019-02-15T10:16:47.644Z,101269.71
2019-02-15T10:19:22.396Z,101259.44
2019-02-15T10:21:53.731Z,101256.19
2019-02-15T10:24:25.895Z,101256.70
2019-02-15T10:26:58.336Z,101258.70
2019-02-15T10:29:30.659Z,101253.48
2019-02-15T10:32:02.523Z,101249.08
2019-02-15T10:34:34.182Z,101255.30
2019-02-15T10:37:06.129Z,101245.97
2019-02-15T10:39:39.539Z,101242.22
2019-02-15T10:42:11.865Z,101239.27
2019-02-15T10:44:44.165Z,101239.72
2019-02-15T10:47:24.681Z,101234.13
2019-02-15T10:49:52.046Z,101231.80
2019-02-15T10:52:23.920Z,101229.48
2019-02-15T10:54:55.569Z,101223.37
2019-02-15T10:57:27.225Z,101225.28
2019-02-15T10:59:59.074Z,101214.76
2019-02-15T11:02:30.749Z,101217.19
2019-02-15T11:05:02.401Z,101211.58
2019-02-15T11:07:34.788Z,101210.56
2019-02-15T11:10:07.120Z,101210.65
2019-02-15T11:12:38.954Z,101206.59
2019-02-15T11:15:12.312Z,101205.69
2019-02-15T11:17:47.335Z,101202.34
2019-02-15T11:20:20.764Z,101200.48
2019-02-15T11:22:52.135Z,101194.13
2019-02-15T11:25:24.581Z,101189.10
2019-02-15T11:27:59.951Z,101186.67
2019-02-15T11:30:31.518Z,101183.28
2019-02-15T11:33:03.358Z,101171.42
2019-02-15T11:35:39.069Z,101176.25
2019-02-15T11:38:10.842Z,101177.16
2019-02-15T11:40:46.060Z,101170.50
2019-02-15T11:43:19.667Z,101167.73
2019-02-15T11:45:51.466Z,101160.52
2019-02-15T11:48:23.594Z,101159.75
2019-02-15T11:50:55.067Z,101154.69
2019-02-15T11:53:27.299Z,101151.88
2019-02-15T11:55:59.585Z,101148.17
2019-02-15T11:58:31.965Z,101150.34
2019-02-15T12:01:05.359Z,101147.61
2019-02-15T12:03:39.175Z,101138.63
2019-02-15T12:06:10.835Z,101132.24
2019-02-15T12:08:44.788Z,101129.59
2019-02-15T12:11:16.625Z,101123.56
2019-02-15T12:13:48.491Z,101122.40
2019-02-15T12:16:20.481Z,101119.81
2019-02-15T12:18:52.159Z,101118.86
2019-02-15T12:21:24.522Z,101115.45
2019-02-15T12:23:59.658Z,101116.42
2019-02-15T12:26:32.491Z,101111.19
2019-02-15T12:29:04.268Z,101112.73
2019-02-15T12:31:35.652Z,101113.22
2019-02-15T12:34:07.659Z,101112.94
2019-02-15T12:36:40.381Z,101109.65
2019-02-15T12:39:14.287Z,101102.98
2019-02-15T12:41:46.218Z,101099.16
2019-02-15T12:44:18.307Z,101096.14
2019-02-15T12:46:54.967Z,101087.62
2019-02-15T12:49:28.950Z,101082.77
2019-02-15T12:52:04.827Z,101079.75
2019-02-15T12:54:38.024Z,101084.52
2019-02-15T12:57:16.759Z,101082.09
2019-02-15T12:59:52.620Z,101079.66
2019-02-15T13:02:26.777Z,101070.84
2019-02-15T13:05:09.048Z,101015.74
2019-02-15T13:07:48.898Z,101069.66
2019-02-15T13:10:24.284Z,101072.37
2019-02-15T13:12:57.207Z,101078.09
2019-02-15T13:15:35.053Z,101068.13
2019-02-15T13:18:09.993Z,101062.24
2019-02-15T13:20:43.069Z,101062.16
2019-02-15T13:23:14.710Z,101057.27
2019-02-15T13:25:46.165Z,101054.93
2019-02-15T13:28:33.690Z,101054.93
2019-02-15T13:31:08.224Z,101054.84
2019-02-15T13:33:48.610Z,100989.17
2019-02-15T13:36:27.304Z,101051.37
2019-02-15T13:39:00.986Z,101047.58
2019-02-15T13:41:36.932Z,101044.00
2019-02-15T13:44:09.647Z,101042.66
2019-02-15T13:46:46.292Z,101037.36
2019-02-15T13:49:18.244Z,101038.97
2019-02-15T13:51:50.634Z,101029.59
2019-02-15T13:54:31.318Z,101030.92
2019-02-15T13:57:03.690Z,101025.79
2019-02-15T13:59:44.146Z,101024.97
2019-02-15T14:02:15.952Z,101024.26
2019-02-15T14:04:52.243Z,101023.63
2019-02-15T14:07:26.755Z,101020.34
2019-02-15T14:10:00.025Z,101019.73
2019-02-15T14:12:32.266Z,101012.00
2019-02-15T14:15:06.342Z,101007.23
2019-02-15T14:17:44.806Z,101010.34
2019-02-15T14:20:15.426Z,101003.67
2019-02-15T14:22:55.247Z,101008.97
2019-02-15T14:25:35.474Z,101007.84
2019-02-15T14:28:09.773Z,101007.48
2019-02-15T14:30:47.729Z,101000.76
2019-02-15T14:33:20.997Z,100928.68
2019-02-15T14:35:55.841Z,100993.41
2019-02-15T14:38:32.107Z,100993.55
2019-02-15T14:41:07.036Z,101000.72
2019-02-15T14:43:40.193Z,100924.62
2019-02-15T14:46:20.596Z,100990.23
2019-02-15T14:54:52.540Z,100976.61
2019-02-15T14:57:29.326Z,100977.09
2019-02-15T15:00:09.871Z,100979.89
2019-02-15T15:02:40.868Z,100973.27
2019-02-15T15:05:18.669Z,100969.05
2019-02-15T15:07:57.160Z,100966.58
2019-02-15T15:10:59.042Z,100969.77
2019-02-15T15:13:35.926Z,100964.02
2019-02-15T15:16:15.354Z,100965.56
2019-02-15T15:18:49.048Z,100959.28
2019-02-15T15:21:35.278Z,100952.49
2019-02-15T15:24:07.636Z,100871.88
2019-02-15T15:26:43.373Z,100948.60
2019-02-15T15:29:14.760Z,100942.91
2019-02-15T15:31:48.515Z,100948.20
2019-02-15T15:34:22.854Z,100943.02
2019-02-15T15:36:59.673Z,100939.18
2019-02-15T15:39:35.472Z,100945.39
2019-02-15T15:42:18.957Z,100943.55
2019-02-15T15:44:56.385Z,100945.06
2019-02-15T15:47:40.989Z,100947.12
2019-02-15T15:50:28.714Z,100935.73
2019-02-15T15:53:07.816Z,100936.16
2019-02-15T15:55:42.156Z,100932.83
2019-02-15T15:58:13.674Z,100928.45
2019-02-15T16:00:45.344Z,100931.91
2019-02-15T16:03:18.089Z,100930.77
2019-02-15T16:08:52.443Z,100932.11
2019-02-15T16:11:27.606Z,100939.36
2019-02-15T16:14:12.916Z,100934.54
2019-02-15T16:16:46.812Z,100942.64
2019-02-15T16:19:18.996Z,100933.75
2019-02-15T16:21:51.035Z,100927.08
2019-02-15T16:24:25.715Z,100930.71
2019-02-15T16:26:57.706Z,100919.97
2019-02-15T16:29:30.164Z,100928.58
2019-02-15T16:32:10.637Z,100938.27
2019-02-15T16:34:42.680Z,100932.17
2019-02-15T16:37:13.612Z,100940.70
2019-02-15T16:39:46.580Z,100938.36
2019-02-15T16:42:17.070Z,100938.45
2019-02-15T16:44:51.007Z,100947.77
2019-02-15T16:47:21.703Z,100942.61
2019-02-15T16:49:59.931Z,100942.36
2019-02-15T16:52:31.907Z,100939.81
2019-02-15T16:55:12.877Z,100941.48
2019-02-15T16:57:38.757Z,100936.77
2019-02-15T17:00:54.258Z,100851.97
2019-02-15T17:03:25.990Z,100859.54
2019-02-15T17:06:39.968Z,100946.76
2019-02-15T17:09:27.100Z,100949.88
2019-02-15T17:12:09.197Z,100942.39
2019-02-15T17:14:51.907Z,100956.17
2019-02-15T17:17:37.364Z,100948.33
2019-02-15T17:20:12.784Z,100954.91
2019-02-15T17:22:43.252Z,100953.60
2019-02-15T17:31:32.038Z,100954.59
2019-02-15T17:37:18.982Z,100951.81
2019-02-15T17:43:36.670Z,100955.06
2019-02-15T17:46:26.130Z,100955.06
2019-02-15T17:49:07.410Z,100961.12
2019-02-15T17:51:49.235Z,100959.63
2019-02-15T17:54:39.185Z,100963.86
2019-02-15T17:57:22.159Z,100965.17
2019-02-15T18:03:13.158Z,100957.79
2019-02-15T18:05:55.685Z,100948.95
2019-02-15T18:08:53.720Z,100947.94
2019-02-15T18:11:25.391Z,100949.09
2019-02-15T18:14:08.553Z,100949.09
2019-02-15T18:16:44.745Z,100950.22
2019-02-15T18:19:17.280Z,100939.92
2019-02-15T18:21:48.227Z,100939.92
2019-02-15T18:24:19.342Z,100935.00
2019-02-15T18:26:50.627Z,100935.00
2019-02-15T18:29:23.995Z,100927.50
2019-02-15T18:32:13.778Z,100927.50
2019-02-15T18:34:56.813Z,100930.59
2019-02-15T18:37:38.654Z,100919.63
2019-02-15T18:40:14.569Z,100919.63
2019-02-15T18:43:05.531Z,100925.81
2019-02-15T18:45:38.431Z,100905.56
2019-02-15T18:48:28.578Z,100918.13
2019-02-15T18:54:11.357Z,100913.73
2019-02-15T18:56:42.637Z,100795.18
2019-02-15T18:59:14.816Z,100795.18
2019-02-15T19:01:50.017Z,100915.48
2019-02-15T19:05:00.895Z,100916.44
2019-02-15T19:07:43.589Z,100911.55
2019-02-15T19:13:39.700Z,100918.52
2019-02-15T19:16:21.385Z,100911.64
2019-02-15T19:19:02.527Z,100915.40
2019-02-15T19:21:33.499Z,100908.35
2019-02-15T19:24:04.442Z,100905.74
2019-02-15T19:26:41.202Z,100906.08
2019-02-15T19:29:14.242Z,100903.14
2019-02-15T19:31:48.072Z,100902.70
2019-02-15T19:37:38.898Z,100907.25
2019-02-15T19:40:20.973Z,100901.41
2019-02-15T19:43:03.926Z,100899.95
2019-02-15T19:49:38.898Z,100896.05
2019-02-15T19:52:18.570Z,100890.86
2019-02-15T19:58:21.507Z,100885.02
2019-02-15T20:00:56.892Z,100887.44
2019-02-15T20:03:29.505Z,100885.98
2019-02-15T20:06:03.203Z,100879.75
2019-02-15T20:08:34.137Z,100876.17
2019-02-15T20:11:07.894Z,100874.19
2019-02-15T20:13:39.445Z,100871.39
2019-02-15T20:16:10.168Z,100871.05
2019-02-15T20:18:41.529Z,100873.47
2019-02-15T20:21:13.130Z,100867.23
2019-02-15T20:23:44.134Z,100865.09
2019-02-15T20:26:14.923Z,100861.81
2019-02-15T20:28:45.440Z,100859.00
2019-02-15T20:31:36.015Z,100859.63
2019-02-15T20:37:19.352Z,100852.33
2019-02-15T20:43:16.141Z,100864.75
2019-02-15T20:46:05.459Z,100862.62
2019-02-15T20:49:04.235Z,100862.28
2019-02-15T20:51:27.956Z,100864.08
2019-02-15T20:53:59.143Z,100858.72
2019-02-15T20:56:48.986Z,100852.05
2019-02-15T21:05:22.927Z,100849.24
2019-02-15T21:07:55.863Z,100842.86
2019-02-15T21:11:05.257Z,100841.51
2019-02-15T21:13:54.929Z,100846.56
2019-02-15T21:16:26.161Z,100840.66
2019-02-15T21:18:56.604Z,100847.30
2019-02-15T21:21:28.825Z,100846.14
2019-02-15T21:24:38.139Z,100853.88
2019-02-15T21:27:27.715Z,100841.80
2019-02-15T21:29:58.313Z,100837.31
2019-02-15T21:32:48.012Z,100840.05
2019-02-15T21:35:38.067Z,100838.72
2019-02-15T21:38:47.189Z,100839.00
2019-02-15T21:41:48.281Z,100746.56
2019-02-15T21:44:29.827Z,100831.02
2019-02-15T21:47:19.342Z,100830.14
2019-02-15T21:53:05.350Z,100833.94
2019-02-15T21:55:46.708Z,100821.72
2019-02-15T21:58:56.083Z,100817.79
2019-02-15T22:01:57.270Z,100817.45
2019-02-15T22:04:58.302Z,100813.72
2019-02-15T22:07:30.126Z,100807.72
2019-02-15T22:10:19.974Z,100802.45
2019-02-15T22:12:50.307Z,100803.28
2019-02-15T22:15:39.437Z,100796.14
2019-02-15T22:18:21.103Z,100800.39
2019-02-15T22:21:02.429Z,100803.13
2019-02-15T22:23:43.826Z,100802.31
2019-02-15T22:26:24.830Z,100800.87
2019-02-15T22:29:06.688Z,100790.94
2019-02-15T22:32:16.775Z,100787.52
2019-02-15T22:37:58.286Z,100782.11
2019-02-15T22:41:06.893Z,100788.93
2019-02-15T22:43:49.546Z,100783.73
2019-02-15T22:46:34.033Z,100777.98
2019-02-15T22:49:14.682Z,100775.55
2019-02-15T22:51:45.574Z,100777.34
2019-02-15T22:54:16.193Z,100773.34
2019-02-15T22:56:47.428Z,100777.56
2019-02-15T22:59:17.981Z,100774.95
2019-02-15T23:01:49.326Z,100769.52
2019-02-15T23:04:21.873Z,100772.72
2019-02-15T23:06:52.556Z,100771.42
2019-02-15T23:09:27.286Z,100765.53
2019-02-15T23:11:58.340Z,100770.84
2019-02-15T23:14:29.511Z,100756.37
2019-02-15T23:17:04.648Z,100758.54
2019-02-15T23:19:35.667Z,100760.97
2019-02-15T23:22:07.132Z,100767.92
2019-02-15T23:25:16.249Z,100756.63
2019-02-15T23:31:06.993Z,100758.58
2019-02-15T23:33:56.127Z,100753.14
2019-02-15T23:36:26.688Z,100744.63
2019-02-15T23:39:07.804Z,100743.08
2019-02-15T23:44:59.404Z,100747.55
2019-02-15T23:47:30.215Z,100749.16
2019-02-15T23:53:29.694Z,100746.17
2019-02-15T23:56:01.453Z,100732.45
2019-02-15T23:59:11.217Z,100728.36
